Latest Weather Observations for Sheoaks

IDV60901

Issued at 1:51 pm EDT Saturday 20 December 2014 (issued every 10 minutes, with the page automatically refreshed every 10 minutes)

About weather observations | Map of Melbourne area stations | Latest observations for Melbourne area | Other Formats
Station Details ID: 087168 Name: SHEOAKS Lat: -37.91 Lon: 144.13 Height: 236.7 m
Data from the previous 72 hours. | See also: Recent months at Sheoaks
Date/Time
EDT
Tmp

°C
App
Tmp
°C
Dew
Point
°C
Rel
Hum
%
Delta-T

°C
Wind Press
QNH
hPa
Press
MSL
hPa
Rain
since
9 am
mm
Dir
 
Spd
km/h
Gust
km/h
Spd
kts
Gust
kts
20/01:30pm 21.5 18.7 7.0 39 7.5 WSW 11 22 6 12 1018.5 1018.1 0.0
20/01:00pm 20.6 17.0 8.3 45 6.5 WSW 17 26 9 14 1018.7 1018.3 0.0
20/12:30pm 20.0 17.5 8.4 47 6.1 WSW 11 24 6 13 1018.9 1018.5 0.0
20/12:00pm 19.4 17.4 8.7 50 5.6 WSW 9 20 5 11 1019.2 1018.8 0.0
20/11:30am 18.5 16.1 8.7 53 5.1 W 11 20 6 11 1019.2 1018.8 0.0
20/11:00am 17.4 14.6 8.5 56 4.6 W 13 20 7 11 1019.5 1019.1 0.0
20/10:30am 16.3 14.2 8.3 59 4.1 WSW 9 20 5 11 1019.7 1019.3 0.0
20/10:00am 15.9 13.1 8.6 62 3.8 SW 13 22 7 12 1019.8 1019.4 0.0
20/09:30am 14.6 12.1 8.3 66 3.2 W 11 19 6 10 1019.8 1019.4 0.0
20/09:00am 13.8 10.9 8.2 69 2.8 WSW 13 20 7 11 1019.7 1019.3 0.0
20/08:30am 13.5 11.0 8.4 71 2.6 WSW 11 17 6 9 1019.3 1018.9 0.0
20/08:00am 13.0 11.7 9.1 77 2.0 NW 6 9 3 5 1019.0 1018.6 0.0
20/07:30am 10.1 8.4 7.7 85 1.2 N 6 7 3 4 1018.7 1018.3 0.0
20/07:00am 7.7 5.5 6.2 90 0.7 N 7 9 4 5 1018.5 1018.1 0.0
20/06:30am 6.5 4.1 5.3 92 0.5 N 7 9 4 5 1018.3 1017.8 0.0
20/06:00am 6.3 3.9 5.1 92 0.5 N 7 9 4 5 1018.2 1017.7 0.0
20/05:30am 6.4 3.6 5.0 91 0.6 N 9 9 5 5 1018.1 1017.6 0.0
20/05:00am 6.7 4.5 5.3 91 0.6 N 6 7 3 4 1018.0 1017.5 0.0
20/04:30am 6.5 4.0 5.0 90 0.7 N 7 7 4 4 1018.0 1017.5 0.0
20/04:00am 6.6 4.4 5.1 90 0.7 N 6 7 3 4 1018.2 1017.7 0.0
20/03:30am 6.8 4.6 5.1 89 0.8 N 6 7 3 4 1018.3 1017.8 0.0
20/03:00am 7.0 4.8 5.5 90 0.7 N 6 7 3 4 1018.4 1017.9 0.0
20/02:30am 7.1 4.7 5.4 89 0.8 N 7 9 4 5 1018.6 1018.2 0.0
20/02:00am 7.2 5.0 5.5 89 0.8 NNW 6 7 3 4 1018.9 1018.5 0.0
20/01:30am 7.6 5.3 5.6 87 0.9 N 7 7 4 4 1019.3 1018.9 0.0
20/01:00am 7.9 5.7 5.5 85 1.1 NNW 6 7 3 4 1019.3 1018.9 0.0
20/12:30am 8.4 6.3 5.9 84 1.2 N 6 7 3 4 1019.7 1019.3 0.0
20/12:00am 9.5 8.1 5.7 77 1.8 N 2 4 1 2 1020.0 1019.6 0.0
 
Date/Time
EDT
Tmp

°C
App
Tmp
°C
Dew
Point
°C
Rel
Hum
%
Delta-T

°C
Wind Press
QNH
hPa
Press
MSL
hPa
Rain
since
9 am
mm
Dir
 
Spd
km/h
Gust
km/h
Spd
kts
Gust
kts
19/11:30pm 10.3 8.1 5.5 72 2.2 W 6 7 3 4 1020.2 1019.8 0.0
19/11:00pm 11.4 9.2 5.3 66 2.8 W 6 9 3 5 1020.3 1019.9 0.0
19/10:30pm 11.9 9.7 5.3 64 3.1 WSW 6 7 3 4 1020.5 1020.0 0.0
19/10:00pm 12.9 10.8 5.8 62 3.4 SSW 6 9 3 5 1020.3 1019.9 0.0
19/09:30pm 13.0 12.4 7.2 68 2.8 CALM 0 2 0 1 1020.0 1019.6 0.0
19/09:00pm 13.4 12.0 7.4 67 3.0 ESE 4 6 2 3 1019.9 1019.5 0.0
19/08:30pm 14.3 12.6 7.4 63 3.4 ESE 6 7 3 4 1019.9 1019.5 0.0
19/08:00pm 16.1 14.3 7.3 56 4.4 ESE 6 11 3 6 1019.6 1019.2 0.0
19/07:30pm 17.1 15.2 7.5 53 4.9 SE 7 13 4 7 1019.2 1018.8 0.0
19/07:00pm 17.1 14.6 6.6 50 5.2 SSE 9 15 5 8 1018.8 1018.4 0.0
19/06:30pm 17.6 14.8 6.8 49 5.4 ESE 11 17 6 9 1018.4 1017.9 0.0
19/06:00pm 16.9 13.7 7.0 52 5.0 SE 13 20 7 11 1018.2 1017.7 0.0
19/05:30pm 18.2 15.2 5.8 44 6.1 SE 11 20 6 11 1017.9 1017.4 0.0
19/05:00pm 18.5 14.8 4.3 39 6.8 SW 13 20 7 11 1017.9 1017.4 0.0
19/04:30pm 19.3 15.6 4.3 37 7.3 WSW 13 24 7 13 1017.7 1017.2 0.0
19/04:00pm 18.4 14.2 3.8 38 6.9 SSW 15 24 8 13 1017.7 1017.2 0.0
19/03:30pm 18.2 14.7 3.7 38 6.9 SSW 11 20 6 11 1017.6 1017.1 0.0
19/03:00pm 17.8 14.0 3.7 39 6.7 SW 13 26 7 14 1017.7 1017.2 0.0
19/02:30pm 18.0 14.4 5.2 43 6.3 SSW 13 26 7 14 1017.7 1017.2 0.0
19/02:00pm 17.7 13.7 5.0 43 6.2 SW 15 26 8 14 1017.7 1017.2 0.0
19/01:30pm 17.8 14.2 5.1 43 6.2 SW 13 22 7 12 1017.7 1017.2 0.0
19/01:00pm 17.3 14.1 4.9 44 6.0 SW 11 20 6 11 1017.8 1017.3 0.0
19/12:30pm 16.7 13.4 4.4 44 5.9 SSW 11 20 6 11 1017.9 1017.4 0.0
19/12:00pm 16.2 12.5 6.3 52 4.9 SW 15 28 8 15 1018.0 1017.5 0.0
19/11:30am 15.3 12.0 6.3 55 4.4 WSW 13 24 7 13 1018.0 1017.5 0.0
19/11:00am 14.5 10.4 6.3 58 4.0 SW 17 30 9 16 1017.9 1017.4 0.0
19/10:30am 14.1 9.7 4.7 53 4.4 SW 17 26 9 14 1017.9 1017.4 0.0
19/10:00am 15.2 11.5 6.5 56 4.3 SW 15 28 8 15 1017.6 1017.1 0.0
19/09:30am 14.2 10.6 6.8 61 3.6 WSW 15 28 8 15 1017.6 1017.1 0.0
19/09:00am 13.4 9.8 6.7 64 3.3 SW 15 24 8 13 1017.3 1016.8 3.8
19/08:30am 12.6 9.1 7.3 70 2.6 W 15 22 8 12 1017.1 1016.6 3.8
19/08:00am 11.6 8.5 7.1 74 2.2 W 13 22 7 12 1016.7 1016.2 3.8
19/07:30am 11.1 8.1 7.6 79 1.7 W 13 22 7 12 1016.2 1015.7 3.8
19/07:00am 9.7 6.7 7.5 86 1.1 WNW 13 19 7 10 1016.1 1015.6 3.8
19/06:30am 9.7 7.0 7.5 86 1.1 W 11 19 6 10 1015.8 1015.4 3.8
19/06:00am 9.3 6.7 7.6 89 0.8 WNW 11 15 6 8 1015.4 1015.0 3.8
19/05:30am 9.6 7.3 7.5 87 1.0 WNW 9 15 5 8 1015.1 1014.7 3.8
19/05:00am 9.9 6.9 7.8 87 1.0 W 13 20 7 11 1015.0 1014.6 3.8
19/04:30am 9.8 6.8 7.6 86 1.1 W 13 19 7 10 1014.5 1014.0 3.8
19/04:00am 10.0 6.2 7.4 84 1.3 W 17 24 9 13 1014.3 1013.8 3.8
19/03:30am 9.9 6.8 7.2 83 1.3 WNW 13 17 7 9 1014.1 1013.6 3.8
19/03:00am 10.1 7.0 7.2 82 1.4 WNW 13 20 7 11 1014.1 1013.6 3.8
19/02:30am 10.5 7.8 7.4 81 1.5 W 11 15 6 8 1014.1 1013.6 3.8
19/02:00am 10.8 8.1 7.5 80 1.6 W 11 19 6 10 1014.1 1013.6 3.8
19/01:30am 10.3 7.5 7.0 80 1.6 WNW 11 15 6 8 1014.1 1013.6 3.8
19/01:00am 10.2 7.9 7.3 82 1.4 WNW 9 13 5 7 1014.1 1013.6 3.8
19/12:30am 10.5 7.8 7.4 81 1.5 WNW 11 15 6 8 1014.1 1013.6 3.8
19/12:00am 10.6 8.3 7.3 80 1.6 WNW 9 11 5 6 1013.9 1013.4 3.8
 
Date/Time
EDT
Tmp

°C
App
Tmp
°C
Dew
Point
°C
Rel
Hum
%
Delta-T

°C
Wind Press
QNH
hPa
Press
MSL
hPa
Rain
since
9 am
mm
Dir
 
Spd
km/h
Gust
km/h
Spd
kts
Gust
kts
18/11:30pm 11.1 8.8 7.4 78 1.8 W 9 15 5 8 1013.9 1013.4 3.8
18/11:00pm 11.1 8.4 7.2 77 1.9 W 11 15 6 8 1013.9 1013.4 3.8
18/10:30pm 12.0 9.7 7.3 73 2.3 W 9 13 5 7 1013.9 1013.4 3.8
18/10:00pm 12.5 10.6 7.4 71 2.5 WSW 7 13 4 7 1013.6 1013.1 3.8
18/09:30pm 12.9 10.6 7.6 70 2.6 SW 9 19 5 10 1013.1 1012.6 3.8
18/09:00pm 13.8 10.7 7.3 65 3.2 SW 13 20 7 11 1012.6 1012.1 3.8
18/08:30pm 14.1 11.8 7.4 64 3.3 W 9 15 5 8 1012.2 1011.7 3.8
18/08:00pm 14.2 11.6 7.9 66 3.2 WSW 11 20 6 11 1011.7 1011.2 3.8
18/07:30pm 14.7 11.1 8.2 65 3.3 SW 17 24 9 13 1011.0 1010.5 3.8
18/07:00pm 14.9 11.9 9.3 69 2.9 W 15 22 8 12 1010.4 1009.9 3.8
18/06:30pm 14.5 11.2 9.7 73 2.5 W 17 30 9 16 1010.0 1009.5 3.8
18/06:00pm 13.4 11.0 10.0 80 1.8 W 13 24 7 13 1009.7 1009.2 3.8
18/05:30pm 14.8 12.1 10.2 74 2.4 W 15 24 8 13 1009.2 1008.7 3.2
18/05:00pm 15.2 13.0 12.0 81 1.8 W 15 28 8 15 1008.8 1008.3 3.2
18/04:30pm 13.3 10.8 11.2 87 1.1 W 15 24 8 13 1009.1 1008.6 3.2
18/04:00pm 13.7 11.2 12.3 91 0.8 W 17 30 9 16 1008.9 1008.4 2.8
18/03:30pm 12.4 9.2 11.3 93 0.6 W 19 26 10 14 1008.7 1008.2 2.2
18/03:00pm 12.5 8.7 11.2 92 0.7 WSW 22 50 12 27 1008.3 1007.8 0.6
18/02:30pm 14.2 7.9 9.0 71 2.7 WSW 32 74 17 40 1007.4 1006.8 0.0
18/02:27pm 16.1 10.6 9.1 63 3.6 W 28 74 15 40 1006.8 1006.3 0.0
18/02:00pm 21.6 16.1 5.9 36 8.0 WNW 24 37 13 20 1006.1 1005.6 0.0
18/01:30pm 21.4 15.8 5.3 35 8.1 W 24 41 13 22 1006.0 1005.5 0.0
18/01:00pm 20.7 15.0 4.7 35 7.9 W 24 44 13 24 1006.1 1005.6 0.0
18/12:30pm 21.0 15.5 4.1 33 8.3 W 22 37 12 20 1006.4 1005.9 0.0
18/12:00pm 20.2 14.3 3.9 34 7.9 W 24 46 13 25 1006.5 1006.0 0.0
18/11:30am 19.7 14.7 3.4 34 7.8 W 19 37 10 20 1006.6 1006.1 0.0
18/11:00am 18.8 12.4 3.4 36 7.3 W 26 39 14 21 1006.5 1006.0 0.0
18/10:30am 18.9 13.0 3.9 37 7.2 W 24 39 13 21 1006.4 1005.9 0.0
18/10:00am 18.1 12.3 4.3 40 6.6 W 24 37 13 20 1006.5 1006.0 0.0
18/09:30am 18.1 12.5 5.3 43 6.3 WNW 24 33 13 18 1006.5 1006.0 0.0
18/09:00am 17.4 11.9 5.7 46 5.8 W 24 37 13 20 1006.3 1005.8 0.0
18/08:30am 16.9 12.3 5.8 48 5.4 WNW 19 33 10 18 1006.2 1005.7 0.0
18/08:00am 13.9 11.6 7.4 65 3.2 NNW 9 15 5 8 1006.0 1005.5 0.0
18/07:30am 11.0 8.6 7.1 77 1.9 NNW 9 13 5 7 1005.8 1005.3 0.0
18/07:00am 8.0 5.4 6.3 89 0.8 N 9 11 5 6 1005.7 1005.2 0.0
18/06:30am 6.9 4.2 5.4 90 0.7 N 9 13 5 7 1005.7 1005.2 0.0
18/06:00am 6.6 3.4 5.2 91 0.6 N 11 15 6 8 1005.4 1004.9 0.0
18/05:30am 6.2 3.4 5.0 92 0.5 N 9 11 5 6 1005.7 1005.2 0.0
18/05:00am 6.3 3.4 4.9 91 0.6 NNW 9 9 5 5 1005.7 1005.2 0.0
18/04:30am 6.6 3.7 4.9 89 0.8 NNW 9 11 5 6 1005.4 1004.9 0.0
18/04:00am 7.0 4.3 5.5 90 0.7 N 9 11 5 6 1005.4 1004.9 0.0
18/03:30am 7.1 4.7 5.3 88 0.8 NNW 7 9 4 5 1005.9 1005.4 0.0
18/03:00am 7.1 4.3 5.1 87 0.9 N 9 13 5 7 1005.9 1005.4 0.0
18/02:30am 7.2 4.7 5.0 86 1.0 NNW 7 9 4 5 1006.4 1005.9 0.0
18/02:00am 7.7 5.3 5.3 85 1.1 N 7 9 4 5 1006.5 1006.0 0.0
18/01:30am 7.6 5.2 5.2 85 1.1 N 7 9 4 5 1006.8 1006.3 0.0
18/01:00am 8.2 6.4 5.5 83 1.2 NNE 4 6 2 3 1006.9 1006.4 0.0
18/12:30am 8.7 6.9 5.6 81 1.4 NNE 4 6 2 3 1007.6 1007.0 0.0
18/12:00am 9.9 7.8 5.9 76 1.9 ENE 6 7 3 4 1007.7 1007.2 0.0
 
Date/Time
EDT
Tmp

°C
App
Tmp
°C
Dew
Point
°C
Rel
Hum
%
Delta-T

°C
Wind Press
QNH
hPa
Press
MSL
hPa
Rain
since
9 am
mm
Dir
 
Spd
km/h
Gust
km/h
Spd
kts
Gust
kts
17/11:30pm 9.3 7.0 5.7 78 1.7 ENE 7 9 4 5 1007.9 1007.4 0.0
17/11:00pm 10.5 8.4 5.9 73 2.2 ENE 6 7 3 4 1008.4 1007.9 0.0
17/10:30pm 10.7 9.0 5.7 71 2.3 ESE 4 6 2 3 1008.7 1008.2 0.0
17/10:00pm 11.7 9.5 6.0 68 2.7 ESE 7 9 4 5 1008.7 1008.2 0.0
17/09:30pm 12.2 9.2 6.0 66 3.0 ESE 11 15 6 8 1008.7 1008.2 0.0
17/09:00pm 13.1 9.8 6.2 63 3.3 ESE 13 17 7 9 1008.6 1008.1 0.0
17/08:30pm 14.0 10.3 6.4 60 3.7 ESE 15 20 8 11 1008.6 1008.1 0.0
17/08:00pm 15.1 11.1 6.7 57 4.2 ESE 17 22 9 12 1008.3 1007.8 0.0
17/07:30pm 16.2 12.5 6.3 52 4.9 SE 15 24 8 13 1008.2 1007.7 0.0
17/07:00pm 16.7 12.6 6.2 50 5.2 ESE 17 24 9 13 1007.9 1007.4 0.0
17/06:30pm 17.1 12.6 6.3 49 5.4 SE 19 28 10 15 1007.8 1007.3 0.0
17/06:00pm 17.4 12.4 6.3 48 5.5 SE 22 32 12 17 1007.7 1007.2 0.0
17/05:30pm 18.4 13.9 6.9 47 5.8 SE 20 35 11 19 1007.7 1007.2 0.0
17/05:00pm 18.6 13.9 6.1 44 6.3 ESE 20 28 11 15 1007.7 1007.2 0.0
17/04:30pm 17.9 13.2 6.1 46 5.9 ESE 20 28 11 15 1007.7 1007.2 0.0
17/04:00pm 19.2 15.8 1.7 31 8.1 SSE 9 24 5 13 1007.8 1007.3 0.0
17/03:30pm 22.1 19.2 2.8 28 9.3 WSW 7 24 4 13 1007.9 1007.4 0.0
17/03:00pm 21.6 17.6 2.8 29 9.0 WSW 13 20 7 11 1008.3 1007.8 0.0
17/02:30pm 19.2 15.9 2.6 33 7.8 NW 9 19 5 10 1008.4 1007.9 0.0
17/02:00pm 19.9 15.9 2.7 32 8.1 WNW 13 22 7 12 1008.7 1008.2 0.0

Latest Capital City Observations: Canberra | Sydney | Melbourne | Brisbane | Adelaide | Perth | Hobart | Darwin

Other Formats:

Comma delimited format used in spreadsheet applications
http://www.bom.gov.au/fwo/IDV60901/IDV60901.94863.axf

JavaScript Object Notation format (JSON) in row-major order
http://www.bom.gov.au/fwo/IDV60901/IDV60901.94863.json